sensor_id;sensor_type;location;lat;lon;timestamp;P1;durP1;ratioP1;P2;durP2;ratioP2
65613;SDS011;52283;49.292;10.572;2023-04-06T00:01:52;13.93;;;7.93;;
65613;SDS011;52283;49.292;10.572;2023-04-06T00:04:19;16.45;;;7.93;;
65613;SDS011;52283;49.292;10.572;2023-04-06T00:06:46;14.77;;;9.00;;
65613;SDS011;52283;49.292;10.572;2023-04-06T00:09:13;18.35;;;9.10;;
65613;SDS011;52283;49.292;10.572;2023-04-06T00:11:39;16.00;;;10.13;;
65613;SDS011;52283;49.292;10.572;2023-04-06T00:14:06;15.55;;;8.43;;
65613;SDS011;52283;49.292;10.572;2023-04-06T00:16:33;15.32;;;8.10;;
65613;SDS011;52283;49.292;10.572;2023-04-06T00:18:59;13.27;;;7.65;;
65613;SDS011;52283;49.292;10.572;2023-04-06T00:21:27;15.10;;;7.90;;
65613;SDS011;52283;49.292;10.572;2023-04-06T00:23:54;13.48;;;7.40;;
65613;SDS011;52283;49.292;10.572;2023-04-06T00:26:20;15.48;;;7.53;;
65613;SDS011;52283;49.292;10.572;2023-04-06T00:28:47;12.70;;;6.80;;
65613;SDS011;52283;49.292;10.572;2023-04-06T00:31:15;11.10;;;6.13;;
65613;SDS011;52283;49.292;10.572;2023-04-06T00:33:41;14.15;;;7.22;;
65613;SDS011;52283;49.292;10.572;2023-04-06T00:36:08;15.10;;;6.82;;
65613;SDS011;52283;49.292;10.572;2023-04-06T00:38:36;18.70;;;8.68;;
65613;SDS011;52283;49.292;10.572;2023-04-06T00:41:03;13.85;;;6.75;;
65613;SDS011;52283;49.292;10.572;2023-04-06T00:43:30;15.95;;;7.60;;
65613;SDS011;52283;49.292;10.572;2023-04-06T00:45:57;23.88;;;10.45;;
65613;SDS011;52283;49.292;10.572;2023-04-06T00:48:24;17.67;;;8.95;;
65613;SDS011;52283;49.292;10.572;2023-04-06T00:50:50;22.70;;;9.15;;
65613;SDS011;52283;49.292;10.572;2023-04-06T00:53:17;18.33;;;8.52;;
65613;SDS011;52283;49.292;10.572;2023-04-06T00:55:45;15.10;;;7.93;;
65613;SDS011;52283;49.292;10.572;2023-04-06T00:58:11;14.27;;;7.70;;
65613;SDS011;52283;49.292;10.572;2023-04-06T01:00:38;9.65;;;6.78;;
65613;SDS011;52283;49.292;10.572;2023-04-06T01:03:05;12.88;;;7.43;;
65613;SDS011;52283;49.292;10.572;2023-04-06T01:05:32;15.18;;;7.93;;
65613;SDS011;52283;49.292;10.572;2023-04-06T01:08:05;14.90;;;8.52;;
65613;SDS011;52283;49.292;10.572;2023-04-06T01:10:31;14.60;;;8.00;;
65613;SDS011;52283;49.292;10.572;2023-04-06T01:12:59;20.63;;;9.77;;
65613;SDS011;52283;49.292;10.572;2023-04-06T01:15:26;15.73;;;8.30;;
65613;SDS011;52283;49.292;10.572;2023-04-06T01:17:54;16.30;;;8.75;;
65613;SDS011;52283;49.292;10.572;2023-04-06T01:20:21;15.60;;;8.48;;
65613;SDS011;52283;49.292;10.572;2023-04-06T01:22:49;15.82;;;7.95;;
65613;SDS011;52283;49.292;10.572;2023-04-06T01:25:15;12.85;;;7.82;;
65613;SDS011;52283;49.292;10.572;2023-04-06T01:27:42;14.15;;;8.05;;
65613;SDS011;52283;49.292;10.572;2023-04-06T01:30:09;13.68;;;8.13;;
65613;SDS011;52283;49.292;10.572;2023-04-06T01:32:36;15.10;;;8.60;;
65613;SDS011;52283;49.292;10.572;2023-04-06T01:35:02;14.05;;;7.53;;
65613;SDS011;52283;49.292;10.572;2023-04-06T01:37:29;13.88;;;7.65;;
65613;SDS011;52283;49.292;10.572;2023-04-06T01:39:58;10.77;;;7.35;;
65613;SDS011;52283;49.292;10.572;2023-04-06T01:42:26;17.73;;;8.02;;
65613;SDS011;52283;49.292;10.572;2023-04-06T01:44:53;16.85;;;8.23;;
65613;SDS011;52283;49.292;10.572;2023-04-06T01:47:19;11.50;;;7.10;;
65613;SDS011;52283;49.292;10.572;2023-04-06T01:49:46;12.18;;;7.28;;
65613;SDS011;52283;49.292;10.572;2023-04-06T01:52:12;14.38;;;7.32;;
65613;SDS011;52283;49.292;10.572;2023-04-06T01:54:40;12.52;;;7.85;;
65613;SDS011;52283;49.292;10.572;2023-04-06T01:57:09;14.75;;;7.28;;
65613;SDS011;52283;49.292;10.572;2023-04-06T01:59:36;12.90;;;8.60;;
65613;SDS011;52283;49.292;10.572;2023-04-06T02:08:45;11.90;;;7.20;;
65613;SDS011;52283;49.292;10.572;2023-04-06T02:11:12;12.27;;;7.43;;
65613;SDS011;52283;49.292;10.572;2023-04-06T02:13:40;10.98;;;6.75;;
65613;SDS011;52283;49.292;10.572;2023-04-06T02:16:06;10.70;;;6.88;;
65613;SDS011;52283;49.292;10.572;2023-04-06T02:18:33;12.18;;;6.78;;
65613;SDS011;52283;49.292;10.572;2023-04-06T02:20:59;13.68;;;7.50;;
65613;SDS011;52283;49.292;10.572;2023-04-06T02:23:26;10.77;;;6.78;;
65613;SDS011;52283;49.292;10.572;2023-04-06T02:25:53;14.05;;;7.97;;
65613;SDS011;52283;49.292;10.572;2023-04-06T02:28:19;11.07;;;6.97;;
65613;SDS011;52283;49.292;10.572;2023-04-06T02:30:47;10.13;;;6.28;;
65613;SDS011;52283;49.292;10.572;2023-04-06T02:33:14;13.07;;;7.18;;
65613;SDS011;52283;49.292;10.572;2023-04-06T02:35:41;9.95;;;6.95;;
65613;SDS011;52283;49.292;10.572;2023-04-06T02:38:07;10.65;;;7.07;;
65613;SDS011;52283;49.292;10.572;2023-04-06T02:40:34;12.98;;;7.13;;
65613;SDS011;52283;49.292;10.572;2023-04-06T02:43:00;11.18;;;6.85;;
65613;SDS011;52283;49.292;10.572;2023-04-06T02:45:27;16.25;;;8.10;;
65613;SDS011;52283;49.292;10.572;2023-04-06T02:47:55;13.15;;;7.53;;
65613;SDS011;52283;49.292;10.572;2023-04-06T02:50:21;13.70;;;7.53;;
65613;SDS011;52283;49.292;10.572;2023-04-06T02:52:48;14.93;;;7.43;;
65613;SDS011;52283;49.292;10.572;2023-04-06T02:55:15;13.20;;;8.02;;
65613;SDS011;52283;49.292;10.572;2023-04-06T02:57:41;11.55;;;7.20;;
65613;SDS011;52283;49.292;10.572;2023-04-06T03:00:08;12.75;;;7.50;;
65613;SDS011;52283;49.292;10.572;2023-04-06T03:02:36;12.68;;;7.15;;
65613;SDS011;52283;49.292;10.572;2023-04-06T03:05:04;16.70;;;7.32;;
65613;SDS011;52283;49.292;10.572;2023-04-06T03:07:31;18.15;;;8.63;;
65613;SDS011;52283;49.292;10.572;2023-04-06T03:09:57;13.02;;;6.70;;
65613;SDS011;52283;49.292;10.572;2023-04-06T03:12:24;12.27;;;7.82;;
65613;SDS011;52283;49.292;10.572;2023-04-06T03:14:50;12.50;;;7.10;;
65613;SDS011;52283;49.292;10.572;2023-04-06T03:17:17;15.20;;;8.30;;
65613;SDS011;52283;49.292;10.572;2023-04-06T03:19:44;13.15;;;6.75;;
65613;SDS011;52283;49.292;10.572;2023-04-06T03:22:11;15.38;;;8.07;;
65613;SDS011;52283;49.292;10.572;2023-04-06T03:24:38;13.98;;;8.00;;
65613;SDS011;52283;49.292;10.572;2023-04-06T03:27:05;15.80;;;7.78;;
65613;SDS011;52283;49.292;10.572;2023-04-06T03:29:31;15.60;;;8.18;;
65613;SDS011;52283;49.292;10.572;2023-04-06T03:31:58;15.63;;;7.95;;
65613;SDS011;52283;49.292;10.572;2023-04-06T03:34:24;17.20;;;8.10;;
65613;SDS011;52283;49.292;10.572;2023-04-06T03:36:51;16.00;;;7.88;;
65613;SDS011;52283;49.292;10.572;2023-04-06T03:39:19;15.02;;;7.43;;
65613;SDS011;52283;49.292;10.572;2023-04-06T03:41:45;19.30;;;7.43;;
65613;SDS011;52283;49.292;10.572;2023-04-06T03:44:12;13.70;;;7.68;;
65613;SDS011;52283;49.292;10.572;2023-04-06T03:46:38;11.85;;;6.93;;
65613;SDS011;52283;49.292;10.572;2023-04-06T03:49:05;9.20;;;6.15;;
65613;SDS011;52283;49.292;10.572;2023-04-06T03:51:32;16.00;;;6.88;;
65613;SDS011;52283;49.292;10.572;2023-04-06T03:53:58;12.98;;;7.75;;
65613;SDS011;52283;49.292;10.572;2023-04-06T03:56:26;10.93;;;7.32;;
65613;SDS011;52283;49.292;10.572;2023-04-06T03:58:53;17.27;;;7.88;;
65613;SDS011;52283;49.292;10.572;2023-04-06T04:01:19;14.45;;;7.38;;
65613;SDS011;52283;49.292;10.572;2023-04-06T04:03:46;13.43;;;7.32;;
65613;SDS011;52283;49.292;10.572;2023-04-06T04:06:12;12.02;;;6.65;;
65613;SDS011;52283;49.292;10.572;2023-04-06T04:08:39;15.98;;;7.57;;
65613;SDS011;52283;49.292;10.572;2023-04-06T04:11:05;13.27;;;7.35;;
65613;SDS011;52283;49.292;10.572;2023-04-06T04:13:33;13.60;;;7.15;;
65613;SDS011;52283;49.292;10.572;2023-04-06T04:16:00;15.82;;;8.05;;
65613;SDS011;52283;49.292;10.572;2023-04-06T04:18:26;17.88;;;8.65;;
65613;SDS011;52283;49.292;10.572;2023-04-06T04:20:53;16.15;;;8.20;;
65613;SDS011;52283;49.292;10.572;2023-04-06T04:23:20;14.48;;;7.93;;
65613;SDS011;52283;49.292;10.572;2023-04-06T04:25:46;16.30;;;7.93;;
65613;SDS011;52283;49.292;10.572;2023-04-06T04:28:13;15.13;;;7.38;;
65613;SDS011;52283;49.292;10.572;2023-04-06T04:30:41;13.30;;;7.32;;
65613;SDS011;52283;49.292;10.572;2023-04-06T04:33:07;16.85;;;7.78;;
65613;SDS011;52283;49.292;10.572;2023-04-06T04:35:34;14.15;;;7.60;;
65613;SDS011;52283;49.292;10.572;2023-04-06T04:38:00;12.35;;;6.85;;
65613;SDS011;52283;49.292;10.572;2023-04-06T04:40:27;16.08;;;7.63;;
65613;SDS011;52283;49.292;10.572;2023-04-06T04:42:53;16.52;;;8.77;;
65613;SDS011;52283;49.292;10.572;2023-04-06T04:45:20;16.25;;;8.88;;
65613;SDS011;52283;49.292;10.572;2023-04-06T04:47:48;13.18;;;7.53;;
65613;SDS011;52283;49.292;10.572;2023-04-06T04:50:14;16.92;;;8.27;;
65613;SDS011;52283;49.292;10.572;2023-04-06T04:52:41;17.52;;;8.27;;
65613;SDS011;52283;49.292;10.572;2023-04-06T04:55:08;14.63;;;7.20;;
65613;SDS011;52283;49.292;10.572;2023-04-06T04:57:34;14.05;;;7.53;;
65613;SDS011;52283;49.292;10.572;2023-04-06T05:00:01;12.63;;;7.28;;
65613;SDS011;52283;49.292;10.572;2023-04-06T05:02:28;13.15;;;6.97;;
65613;SDS011;52283;49.292;10.572;2023-04-06T05:04:56;13.55;;;8.60;;
65613;SDS011;52283;49.292;10.572;2023-04-06T05:07:23;17.70;;;8.20;;
65613;SDS011;52283;49.292;10.572;2023-04-06T05:09:49;11.93;;;7.57;;
65613;SDS011;52283;49.292;10.572;2023-04-06T05:12:16;13.25;;;6.85;;
65613;SDS011;52283;49.292;10.572;2023-04-06T05:14:42;12.13;;;7.28;;
65613;SDS011;52283;49.292;10.572;2023-04-06T05:17:09;14.05;;;7.72;;
65613;SDS011;52283;49.292;10.572;2023-04-06T05:19:36;16.95;;;7.97;;
65613;SDS011;52283;49.292;10.572;2023-04-06T05:22:04;14.98;;;7.47;;
65613;SDS011;52283;49.292;10.572;2023-04-06T05:24:30;18.02;;;9.82;;
65613;SDS011;52283;49.292;10.572;2023-04-06T05:26:57;21.38;;;11.40;;
65613;SDS011;52283;49.292;10.572;2023-04-06T05:29:25;27.67;;;14.15;;
65613;SDS011;52283;49.292;10.572;2023-04-06T05:31:51;19.95;;;12.25;;
65613;SDS011;52283;49.292;10.572;2023-04-06T05:34:18;22.90;;;11.23;;
65613;SDS011;52283;49.292;10.572;2023-04-06T05:36:45;18.88;;;10.20;;
65613;SDS011;52283;49.292;10.572;2023-04-06T05:39:13;18.25;;;10.75;;
65613;SDS011;52283;49.292;10.572;2023-04-06T05:41:39;20.00;;;9.77;;
65613;SDS011;52283;49.292;10.572;2023-04-06T05:44:06;14.15;;;8.32;;
65613;SDS011;52283;49.292;10.572;2023-04-06T05:46:33;16.00;;;9.65;;
65613;SDS011;52283;49.292;10.572;2023-04-06T05:48:59;16.35;;;8.32;;
65613;SDS011;52283;49.292;10.572;2023-04-06T05:51:26;25.55;;;9.95;;
65613;SDS011;52283;49.292;10.572;2023-04-06T05:53:52;18.83;;;9.70;;
65613;SDS011;52283;49.292;10.572;2023-04-06T05:56:20;18.98;;;9.48;;
65613;SDS011;52283;49.292;10.572;2023-04-06T05:58:47;21.73;;;9.68;;
65613;SDS011;52283;49.292;10.572;2023-04-06T06:01:14;18.23;;;9.05;;
65613;SDS011;52283;49.292;10.572;2023-04-06T06:03:40;18.38;;;9.05;;
65613;SDS011;52283;49.292;10.572;2023-04-06T06:06:07;15.98;;;8.77;;
65613;SDS011;52283;49.292;10.572;2023-04-06T06:08:33;17.50;;;9.57;;
65613;SDS011;52283;49.292;10.572;2023-04-06T06:11:01;17.38;;;9.02;;
65613;SDS011;52283;49.292;10.572;2023-04-06T06:13:29;21.00;;;8.75;;
65613;SDS011;52283;49.292;10.572;2023-04-06T06:15:56;15.25;;;8.32;;
65613;SDS011;52283;49.292;10.572;2023-04-06T06:18:22;16.88;;;8.95;;
65613;SDS011;52283;49.292;10.572;2023-04-06T06:20:49;16.90;;;10.75;;
65613;SDS011;52283;49.292;10.572;2023-04-06T06:23:15;20.92;;;9.00;;
65613;SDS011;52283;49.292;10.572;2023-04-06T06:25:42;18.98;;;9.48;;
65613;SDS011;52283;49.292;10.572;2023-04-06T06:28:08;15.07;;;9.05;;
65613;SDS011;52283;49.292;10.572;2023-04-06T06:30:36;19.27;;;9.30;;
65613;SDS011;52283;49.292;10.572;2023-04-06T06:33:03;21.58;;;8.80;;
65613;SDS011;52283;49.292;10.572;2023-04-06T06:35:29;19.55;;;9.15;;
65613;SDS011;52283;49.292;10.572;2023-04-06T06:37:56;23.52;;;9.40;;
65613;SDS011;52283;49.292;10.572;2023-04-06T06:40:22;16.42;;;9.10;;
65613;SDS011;52283;49.292;10.572;2023-04-06T06:42:51;21.63;;;9.52;;
65613;SDS011;52283;49.292;10.572;2023-04-06T06:45:17;26.35;;;12.07;;
65613;SDS011;52283;49.292;10.572;2023-04-06T06:47:46;15.85;;;9.50;;
65613;SDS011;52283;49.292;10.572;2023-04-06T06:50:13;18.25;;;9.57;;
65613;SDS011;52283;49.292;10.572;2023-04-06T06:52:39;23.40;;;9.55;;
65613;SDS011;52283;49.292;10.572;2023-04-06T06:55:07;24.15;;;10.23;;
65613;SDS011;52283;49.292;10.572;2023-04-06T06:57:35;17.98;;;10.07;;
65613;SDS011;52283;49.292;10.572;2023-04-06T07:00:01;13.00;;;8.20;;
65613;SDS011;52283;49.292;10.572;2023-04-06T07:02:29;18.33;;;9.57;;
65613;SDS011;52283;49.292;10.572;2023-04-06T07:04:57;18.23;;;9.75;;
65613;SDS011;52283;49.292;10.572;2023-04-06T07:07:23;18.95;;;9.85;;
65613;SDS011;52283;49.292;10.572;2023-04-06T07:09:50;25.15;;;9.43;;
65613;SDS011;52283;49.292;10.572;2023-04-06T07:12:16;16.20;;;8.63;;
65613;SDS011;52283;49.292;10.572;2023-04-06T07:14:43;18.20;;;9.90;;
65613;SDS011;52283;49.292;10.572;2023-04-06T07:17:09;24.50;;;12.85;;
65613;SDS011;52283;49.292;10.572;2023-04-06T07:19:36;25.02;;;10.27;;
65613;SDS011;52283;49.292;10.572;2023-04-06T07:22:04;18.75;;;11.18;;
65613;SDS011;52283;49.292;10.572;2023-04-06T07:24:30;14.52;;;9.57;;
65613;SDS011;52283;49.292;10.572;2023-04-06T07:26:57;11.93;;;6.90;;
65613;SDS011;52283;49.292;10.572;2023-04-06T07:29:25;8.30;;;5.68;;
65613;SDS011;52283;49.292;10.572;2023-04-06T07:31:52;9.23;;;6.40;;
65613;SDS011;52283;49.292;10.572;2023-04-06T07:34:18;7.93;;;5.90;;
65613;SDS011;52283;49.292;10.572;2023-04-06T07:36:45;8.20;;;5.38;;
65613;SDS011;52283;49.292;10.572;2023-04-06T07:39:13;7.93;;;5.95;;
65613;SDS011;52283;49.292;10.572;2023-04-06T07:41:39;11.25;;;5.95;;
65613;SDS011;52283;49.292;10.572;2023-04-06T07:44:06;11.00;;;6.53;;
65613;SDS011;52283;49.292;10.572;2023-04-06T07:46:33;11.75;;;5.75;;
65613;SDS011;52283;49.292;10.572;2023-04-06T07:49:00;10.73;;;6.72;;
65613;SDS011;52283;49.292;10.572;2023-04-06T07:51:27;13.27;;;6.38;;
65613;SDS011;52283;49.292;10.572;2023-04-06T07:53:54;10.57;;;6.00;;
65613;SDS011;52283;49.292;10.572;2023-04-06T07:56:22;10.68;;;5.95;;
65613;SDS011;52283;49.292;10.572;2023-04-06T07:58:50;10.55;;;6.63;;
65613;SDS011;52283;49.292;10.572;2023-04-06T08:01:17;10.88;;;5.68;;
65613;SDS011;52283;49.292;10.572;2023-04-06T08:03:43;12.68;;;6.43;;
65613;SDS011;52283;49.292;10.572;2023-04-06T08:06:10;9.82;;;5.57;;
65613;SDS011;52283;49.292;10.572;2023-04-06T08:08:36;7.97;;;5.47;;
65613;SDS011;52283;49.292;10.572;2023-04-06T08:11:03;12.80;;;9.65;;
65613;SDS011;52283;49.292;10.572;2023-04-06T08:13:31;12.18;;;5.57;;
65613;SDS011;52283;49.292;10.572;2023-04-06T08:15:58;10.15;;;6.53;;
65613;SDS011;52283;49.292;10.572;2023-04-06T08:18:25;7.05;;;5.60;;
65613;SDS011;52283;49.292;10.572;2023-04-06T08:20:52;9.27;;;5.95;;
65613;SDS011;52283;49.292;10.572;2023-04-06T08:23:18;12.40;;;6.32;;
65613;SDS011;52283;49.292;10.572;2023-04-06T08:25:45;14.38;;;6.68;;
65613;SDS011;52283;49.292;10.572;2023-04-06T08:28:12;9.82;;;6.45;;
65613;SDS011;52283;49.292;10.572;2023-04-06T08:30:42;10.27;;;6.95;;
65613;SDS011;52283;49.292;10.572;2023-04-06T08:33:09;8.37;;;5.73;;
65613;SDS011;52283;49.292;10.572;2023-04-06T08:35:36;9.88;;;5.90;;
65613;SDS011;52283;49.292;10.572;2023-04-06T08:38:02;10.77;;;6.70;;
65613;SDS011;52283;49.292;10.572;2023-04-06T08:40:29;15.35;;;7.07;;
65613;SDS011;52283;49.292;10.572;2023-04-06T08:42:56;11.10;;;6.25;;
65613;SDS011;52283;49.292;10.572;2023-04-06T08:45:27;8.43;;;6.23;;
65613;SDS011;52283;49.292;10.572;2023-04-06T08:47:55;7.95;;;5.78;;
65613;SDS011;52283;49.292;10.572;2023-04-06T08:50:26;12.85;;;6.15;;
65613;SDS011;52283;49.292;10.572;2023-04-06T08:52:55;11.23;;;6.50;;
65613;SDS011;52283;49.292;10.572;2023-04-06T08:55:22;11.23;;;5.93;;
65613;SDS011;52283;49.292;10.572;2023-04-06T08:57:49;11.25;;;7.00;;
65613;SDS011;52283;49.292;10.572;2023-04-06T09:00:18;7.72;;;5.63;;
65613;SDS011;52283;49.292;10.572;2023-04-06T09:02:46;9.98;;;5.82;;
65613;SDS011;52283;49.292;10.572;2023-04-06T09:05:16;9.43;;;6.55;;
65613;SDS011;52283;49.292;10.572;2023-04-06T09:07:43;9.50;;;6.15;;
65613;SDS011;52283;49.292;10.572;2023-04-06T09:10:11;10.65;;;5.72;;
65613;SDS011;52283;49.292;10.572;2023-04-06T09:12:37;12.20;;;6.40;;
65613;SDS011;52283;49.292;10.572;2023-04-06T09:15:04;10.05;;;6.22;;
65613;SDS011;52283;49.292;10.572;2023-04-06T09:17:32;8.73;;;6.03;;
65613;SDS011;52283;49.292;10.572;2023-04-06T09:19:59;17.70;;;7.50;;
65613;SDS011;52283;49.292;10.572;2023-04-06T09:22:36;14.38;;;7.47;;
65613;SDS011;52283;49.292;10.572;2023-04-06T09:25:03;16.05;;;6.82;;
65613;SDS011;52283;49.292;10.572;2023-04-06T09:27:31;11.23;;;7.45;;
65613;SDS011;52283;49.292;10.572;2023-04-06T09:30:05;15.73;;;7.35;;
65613;SDS011;52283;49.292;10.572;2023-04-06T09:32:43;7.78;;;6.03;;
65613;SDS011;52283;49.292;10.572;2023-04-06T09:35:11;19.45;;;7.85;;
65613;SDS011;52283;49.292;10.572;2023-04-06T09:37:39;10.80;;;6.55;;
65613;SDS011;52283;49.292;10.572;2023-04-06T09:40:06;11.40;;;6.15;;
65613;SDS011;52283;49.292;10.572;2023-04-06T09:42:33;11.90;;;6.30;;
65613;SDS011;52283;49.292;10.572;2023-04-06T09:45:00;9.13;;;6.40;;
65613;SDS011;52283;49.292;10.572;2023-04-06T09:47:28;8.27;;;6.22;;
65613;SDS011;52283;49.292;10.572;2023-04-06T09:49:56;14.27;;;5.68;;
65613;SDS011;52283;49.292;10.572;2023-04-06T09:52:24;10.45;;;7.22;;
65613;SDS011;52283;49.292;10.572;2023-04-06T09:54:55;14.55;;;8.77;;
65613;SDS011;52283;49.292;10.572;2023-04-06T09:57:25;11.75;;;6.35;;
65613;SDS011;52283;49.292;10.572;2023-04-06T09:59:56;9.68;;;6.32;;
65613;SDS011;52283;49.292;10.572;2023-04-06T10:02:33;11.05;;;6.13;;
65613;SDS011;52283;49.292;10.572;2023-04-06T10:05:08;11.45;;;6.70;;
65613;SDS011;52283;49.292;10.572;2023-04-06T10:07:39;10.48;;;6.57;;
65613;SDS011;52283;49.292;10.572;2023-04-06T10:10:09;11.35;;;6.55;;
65613;SDS011;52283;49.292;10.572;2023-04-06T10:12:37;7.93;;;5.93;;
65613;SDS011;52283;49.292;10.572;2023-04-06T10:15:06;12.20;;;8.45;;
65613;SDS011;52283;49.292;10.572;2023-04-06T10:17:34;9.10;;;6.43;;
65613;SDS011;52283;49.292;10.572;2023-04-06T10:20:02;10.30;;;6.07;;
65613;SDS011;52283;49.292;10.572;2023-04-06T10:22:34;12.40;;;6.57;;
65613;SDS011;52283;49.292;10.572;2023-04-06T10:25:07;8.50;;;6.40;;
65613;SDS011;52283;49.292;10.572;2023-04-06T10:27:35;9.45;;;6.28;;
65613;SDS011;52283;49.292;10.572;2023-04-06T10:30:02;9.13;;;6.47;;
65613;SDS011;52283;49.292;10.572;2023-04-06T10:32:34;9.80;;;5.95;;
65613;SDS011;52283;49.292;10.572;2023-04-06T10:35:05;16.88;;;10.45;;
65613;SDS011;52283;49.292;10.572;2023-04-06T10:37:45;9.30;;;6.28;;
65613;SDS011;52283;49.292;10.572;2023-04-06T10:40:18;7.90;;;6.30;;
65613;SDS011;52283;49.292;10.572;2023-04-06T10:42:46;8.95;;;6.05;;
65613;SDS011;52283;49.292;10.572;2023-04-06T10:45:19;8.55;;;6.03;;
65613;SDS011;52283;49.292;10.572;2023-04-06T10:47:47;10.57;;;6.82;;
65613;SDS011;52283;49.292;10.572;2023-04-06T10:50:14;11.18;;;6.15;;
65613;SDS011;52283;49.292;10.572;2023-04-06T10:52:41;9.68;;;5.88;;
65613;SDS011;52283;49.292;10.572;2023-04-06T10:55:08;10.02;;;6.53;;
65613;SDS011;52283;49.292;10.572;2023-04-06T10:57:36;9.02;;;6.10;;
65613;SDS011;52283;49.292;10.572;2023-04-06T11:00:05;8.52;;;5.95;;
65613;SDS011;52283;49.292;10.572;2023-04-06T11:02:33;10.18;;;6.75;;
65613;SDS011;52283;49.292;10.572;2023-04-06T11:05:00;15.32;;;7.03;;
65613;SDS011;52283;49.292;10.572;2023-04-06T11:07:27;11.70;;;6.45;;
65613;SDS011;52283;49.292;10.572;2023-04-06T11:09:55;14.70;;;8.90;;
65613;SDS011;52283;49.292;10.572;2023-04-06T11:12:23;14.27;;;9.20;;
65613;SDS011;52283;49.292;10.572;2023-04-06T11:14:54;18.98;;;9.73;;
65613;SDS011;52283;49.292;10.572;2023-04-06T11:17:27;11.43;;;7.38;;
65613;SDS011;52283;49.292;10.572;2023-04-06T11:19:54;21.25;;;16.30;;
65613;SDS011;52283;49.292;10.572;2023-04-06T11:22:21;10.32;;;6.95;;
65613;SDS011;52283;49.292;10.572;2023-04-06T11:24:47;9.55;;;6.25;;
65613;SDS011;52283;49.292;10.572;2023-04-06T11:27:14;8.73;;;6.70;;
65613;SDS011;52283;49.292;10.572;2023-04-06T11:29:41;10.63;;;7.35;;
65613;SDS011;52283;49.292;10.572;2023-04-06T11:32:08;10.98;;;7.82;;
65613;SDS011;52283;49.292;10.572;2023-04-06T11:34:37;12.40;;;8.05;;
65613;SDS011;52283;49.292;10.572;2023-04-06T11:37:07;17.35;;;10.32;;
65613;SDS011;52283;49.292;10.572;2023-04-06T11:39:37;9.10;;;6.97;;
65613;SDS011;52283;49.292;10.572;2023-04-06T11:42:05;8.20;;;6.68;;
65613;SDS011;52283;49.292;10.572;2023-04-06T11:44:33;11.80;;;9.10;;
65613;SDS011;52283;49.292;10.572;2023-04-06T11:47:01;10.35;;;6.40;;
65613;SDS011;52283;49.292;10.572;2023-04-06T11:49:28;9.30;;;6.25;;
65613;SDS011;52283;49.292;10.572;2023-04-06T11:51:56;10.43;;;5.45;;
65613;SDS011;52283;49.292;10.572;2023-04-06T11:54:30;12.88;;;7.18;;
65613;SDS011;52283;49.292;10.572;2023-04-06T11:56:58;8.63;;;6.10;;
65613;SDS011;52283;49.292;10.572;2023-04-06T11:59:25;11.50;;;6.95;;
65613;SDS011;52283;49.292;10.572;2023-04-06T12:01:52;10.63;;;7.18;;
65613;SDS011;52283;49.292;10.572;2023-04-06T12:04:19;12.10;;;7.43;;
65613;SDS011;52283;49.292;10.572;2023-04-06T12:06:45;10.48;;;6.75;;
65613;SDS011;52283;49.292;10.572;2023-04-06T12:09:13;9.82;;;7.43;;
65613;SDS011;52283;49.292;10.572;2023-04-06T12:11:40;9.60;;;6.60;;
65613;SDS011;52283;49.292;10.572;2023-04-06T12:14:07;13.50;;;8.80;;
65613;SDS011;52283;49.292;10.572;2023-04-06T12:16:33;10.57;;;6.90;;
65613;SDS011;52283;49.292;10.572;2023-04-06T12:19:00;10.68;;;6.25;;
65613;SDS011;52283;49.292;10.572;2023-04-06T12:21:27;12.93;;;7.22;;
65613;SDS011;52283;49.292;10.572;2023-04-06T12:23:55;25.63;;;10.48;;
65613;SDS011;52283;49.292;10.572;2023-04-06T12:26:24;15.35;;;8.57;;
65613;SDS011;52283;49.292;10.572;2023-04-06T12:28:51;10.73;;;7.28;;
65613;SDS011;52283;49.292;10.572;2023-04-06T12:31:18;8.07;;;5.05;;
65613;SDS011;52283;49.292;10.572;2023-04-06T12:33:46;9.70;;;6.13;;
65613;SDS011;52283;49.292;10.572;2023-04-06T12:36:13;8.18;;;6.60;;
65613;SDS011;52283;49.292;10.572;2023-04-06T12:38:40;9.98;;;6.40;;
65613;SDS011;52283;49.292;10.572;2023-04-06T12:41:09;10.10;;;6.45;;
65613;SDS011;52283;49.292;10.572;2023-04-06T12:43:37;9.85;;;6.70;;
65613;SDS011;52283;49.292;10.572;2023-04-06T12:46:05;9.05;;;6.45;;
65613;SDS011;52283;49.292;10.572;2023-04-06T12:48:31;9.88;;;6.18;;
65613;SDS011;52283;49.292;10.572;2023-04-06T12:50:58;8.68;;;5.65;;
65613;SDS011;52283;49.292;10.572;2023-04-06T12:53:26;11.32;;;7.57;;
65613;SDS011;52283;49.292;10.572;2023-04-06T12:55:53;8.68;;;6.20;;
65613;SDS011;52283;49.292;10.572;2023-04-06T12:58:21;12.15;;;7.32;;
65613;SDS011;52283;49.292;10.572;2023-04-06T13:00:49;7.60;;;6.50;;
65613;SDS011;52283;49.292;10.572;2023-04-06T13:03:16;7.93;;;6.07;;
65613;SDS011;52283;49.292;10.572;2023-04-06T13:05:43;10.13;;;6.30;;
65613;SDS011;52283;49.292;10.572;2023-04-06T13:08:10;9.75;;;7.32;;
65613;SDS011;52283;49.292;10.572;2023-04-06T13:10:37;7.82;;;6.47;;
65613;SDS011;52283;49.292;10.572;2023-04-06T13:13:04;12.18;;;7.75;;
65613;SDS011;52283;49.292;10.572;2023-04-06T13:15:31;11.10;;;7.95;;
65613;SDS011;52283;49.292;10.572;2023-04-06T13:18:01;10.02;;;6.70;;
65613;SDS011;52283;49.292;10.572;2023-04-06T13:20:27;10.13;;;6.90;;
65613;SDS011;52283;49.292;10.572;2023-04-06T13:22:54;10.60;;;6.72;;
65613;SDS011;52283;49.292;10.572;2023-04-06T13:25:21;11.90;;;7.25;;
65613;SDS011;52283;49.292;10.572;2023-04-06T13:27:47;11.15;;;6.97;;
65613;SDS011;52283;49.292;10.572;2023-04-06T13:30:14;9.27;;;6.63;;
65613;SDS011;52283;49.292;10.572;2023-04-06T13:32:41;9.10;;;6.53;;
65613;SDS011;52283;49.292;10.572;2023-04-06T13:35:09;10.20;;;6.82;;
65613;SDS011;52283;49.292;10.572;2023-04-06T13:37:36;14.18;;;6.63;;
65613;SDS011;52283;49.292;10.572;2023-04-06T13:40:03;8.65;;;6.72;;
65613;SDS011;52283;49.292;10.572;2023-04-06T13:42:31;7.75;;;6.38;;
65613;SDS011;52283;49.292;10.572;2023-04-06T13:45:00;8.43;;;6.00;;
65613;SDS011;52283;49.292;10.572;2023-04-06T13:47:26;9.05;;;6.75;;
65613;SDS011;52283;49.292;10.572;2023-04-06T13:49:53;10.13;;;7.32;;
65613;SDS011;52283;49.292;10.572;2023-04-06T13:52:22;9.43;;;7.13;;
65613;SDS011;52283;49.292;10.572;2023-04-06T13:54:48;10.57;;;7.00;;
65613;SDS011;52283;49.292;10.572;2023-04-06T13:57:16;8.88;;;6.47;;
65613;SDS011;52283;49.292;10.572;2023-04-06T13:59:42;14.18;;;7.00;;
65613;SDS011;52283;49.292;10.572;2023-04-06T14:02:09;11.10;;;6.70;;
65613;SDS011;52283;49.292;10.572;2023-04-06T14:04:36;10.95;;;7.30;;
65613;SDS011;52283;49.292;10.572;2023-04-06T14:07:03;8.05;;;6.72;;
65613;SDS011;52283;49.292;10.572;2023-04-06T14:09:33;11.38;;;6.97;;
65613;SDS011;52283;49.292;10.572;2023-04-06T14:11:59;8.23;;;6.47;;
65613;SDS011;52283;49.292;10.572;2023-04-06T14:14:26;10.52;;;7.05;;
65613;SDS011;52283;49.292;10.572;2023-04-06T14:16:53;9.82;;;7.30;;
65613;SDS011;52283;49.292;10.572;2023-04-06T14:19:20;10.30;;;7.55;;
65613;SDS011;52283;49.292;10.572;2023-04-06T14:21:47;9.15;;;7.20;;
65613;SDS011;52283;49.292;10.572;2023-04-06T14:24:14;9.10;;;6.55;;
65613;SDS011;52283;49.292;10.572;2023-04-06T14:26:43;9.57;;;7.40;;
65613;SDS011;52283;49.292;10.572;2023-04-06T14:29:10;14.52;;;7.63;;
65613;SDS011;52283;49.292;10.572;2023-04-06T14:31:36;9.25;;;6.80;;